Lee, Massachusetts
Current Conditions -  °F | °C
As of 2:54 PM on Friday 21 Nov 2014 (Local Time) from KPSF Reporting Station
Broken Clouds Broken Clouds  
Wind Chill: 13°   Ceiling: 4100
Heat Index: 26°   Visibility: 10mi
Dew Point:   Wind: 18mph
Humidity: 47%   Direction: 290°WNW
Pressure: 30.22"   Gusts: 30mph
Location:  42.3°N, 73.25°W
Report Text: KPSF 211954Z AUTO 29016G26KT 10SM BKN041 BKN050 M03/M13 A3022 RMK AO2 PK WND 28027/1929 SLP252 T10331133
Loading
Personal Weather Stations






























Interactive Weather Map New forecast layout! Learn more

10-Day Weather Forecast

Advertisements
Track Severe Weather on mobile